sensor_id;sensor_type;location;lat;lon;timestamp;P1;durP1;ratioP1;P2;durP2;ratioP2
80508;SDS011;69838;52.602;13.434;2023-08-20T00:00:41;23.35;;;19.42;;
80508;SDS011;69838;52.602;13.434;2023-08-20T00:01:29;21.88;;;19.67;;
80508;SDS011;69838;52.602;13.434;2023-08-20T00:02:16;20.52;;;18.35;;
80508;SDS011;69838;52.602;13.434;2023-08-20T00:03:06;20.65;;;17.95;;
80508;SDS011;69838;52.602;13.434;2023-08-20T00:03:57;21.88;;;19.63;;
80508;SDS011;69838;52.602;13.434;2023-08-20T00:04:43;22.08;;;17.95;;
80508;SDS011;69838;52.602;13.434;2023-08-20T00:05:31;21.45;;;19.17;;
80508;SDS011;69838;52.602;13.434;2023-08-20T00:06:18;20.58;;;18.42;;
80508;SDS011;69838;52.602;13.434;2023-08-20T00:07:05;22.02;;;19.63;;
80508;SDS011;69838;52.602;13.434;2023-08-20T00:07:51;22.38;;;19.60;;
80508;SDS011;69838;52.602;13.434;2023-08-20T00:08:37;20.25;;;18.15;;
80508;SDS011;69838;52.602;13.434;2023-08-20T00:09:23;21.27;;;19.10;;
80508;SDS011;69838;52.602;13.434;2023-08-20T00:10:09;23.13;;;20.02;;
80508;SDS011;69838;52.602;13.434;2023-08-20T00:10:55;22.08;;;19.77;;
80508;SDS011;69838;52.602;13.434;2023-08-20T00:11:41;20.33;;;18.27;;
80508;SDS011;69838;52.602;13.434;2023-08-20T00:12:27;20.38;;;18.27;;
80508;SDS011;69838;52.602;13.434;2023-08-20T00:13:14;20.15;;;17.95;;
80508;SDS011;69838;52.602;13.434;2023-08-20T00:13:59;21.15;;;18.95;;
80508;SDS011;69838;52.602;13.434;2023-08-20T00:14:54;21.67;;;19.58;;
80508;SDS011;69838;52.602;13.434;2023-08-20T00:15:43;21.50;;;19.33;;
80508;SDS011;69838;52.602;13.434;2023-08-20T00:16:29;22.05;;;19.85;;
80508;SDS011;69838;52.602;13.434;2023-08-20T00:17:16;20.50;;;18.40;;
80508;SDS011;69838;52.602;13.434;2023-08-20T00:18:01;21.65;;;18.90;;
80508;SDS011;69838;52.602;13.434;2023-08-20T00:18:47;21.75;;;19.52;;
80508;SDS011;69838;52.602;13.434;2023-08-20T00:19:34;21.42;;;19.27;;
80508;SDS011;69838;52.602;13.434;2023-08-20T00:20:20;21.80;;;19.55;;
80508;SDS011;69838;52.602;13.434;2023-08-20T00:21:07;21.48;;;19.38;;
80508;SDS011;69838;52.602;13.434;2023-08-20T00:21:53;21.17;;;18.30;;
80508;SDS011;69838;52.602;13.434;2023-08-20T00:22:38;21.45;;;19.30;;
80508;SDS011;69838;52.602;13.434;2023-08-20T00:23:27;22.10;;;19.98;;
80508;SDS011;69838;52.602;13.434;2023-08-20T00:24:13;21.35;;;19.05;;
80508;SDS011;69838;52.602;13.434;2023-08-20T00:24:58;20.75;;;18.63;;
80508;SDS011;69838;52.602;13.434;2023-08-20T00:25:45;20.70;;;18.60;;
80508;SDS011;69838;52.602;13.434;2023-08-20T00:26:31;21.13;;;18.92;;
80508;SDS011;69838;52.602;13.434;2023-08-20T00:27:18;20.30;;;18.30;;
80508;SDS011;69838;52.602;13.434;2023-08-20T00:28:05;20.13;;;18.13;;
80508;SDS011;69838;52.602;13.434;2023-08-20T00:28:50;20.73;;;18.50;;
80508;SDS011;69838;52.602;13.434;2023-08-20T00:29:37;20.60;;;18.48;;
80508;SDS011;69838;52.602;13.434;2023-08-20T00:30:22;21.30;;;19.20;;
80508;SDS011;69838;52.602;13.434;2023-08-20T00:31:07;21.15;;;18.63;;
80508;SDS011;69838;52.602;13.434;2023-08-20T00:31:54;20.38;;;18.27;;
80508;SDS011;69838;52.602;13.434;2023-08-20T00:32:39;22.13;;;19.90;;
80508;SDS011;69838;52.602;13.434;2023-08-20T00:33:25;21.08;;;18.88;;
80508;SDS011;69838;52.602;13.434;2023-08-20T00:34:11;21.30;;;19.20;;
80508;SDS011;69838;52.602;13.434;2023-08-20T00:34:57;21.27;;;19.05;;
80508;SDS011;69838;52.602;13.434;2023-08-20T00:35:42;22.63;;;20.27;;
80508;SDS011;69838;52.602;13.434;2023-08-20T00:36:28;21.33;;;19.23;;
80508;SDS011;69838;52.602;13.434;2023-08-20T00:37:14;21.60;;;19.27;;
80508;SDS011;69838;52.602;13.434;2023-08-20T00:37:59;22.20;;;20.00;;
80508;SDS011;69838;52.602;13.434;2023-08-20T00:38:46;21.65;;;19.45;;
80508;SDS011;69838;52.602;13.434;2023-08-20T00:39:31;22.10;;;19.73;;
80508;SDS011;69838;52.602;13.434;2023-08-20T00:40:16;21.20;;;19.05;;
80508;SDS011;69838;52.602;13.434;2023-08-20T00:41:03;21.67;;;19.45;;
80508;SDS011;69838;52.602;13.434;2023-08-20T00:41:48;21.05;;;18.85;;
80508;SDS011;69838;52.602;13.434;2023-08-20T00:42:34;20.30;;;18.20;;
80508;SDS011;69838;52.602;13.434;2023-08-20T00:43:21;20.90;;;18.70;;
80508;SDS011;69838;52.602;13.434;2023-08-20T00:44:07;22.13;;;19.83;;
80508;SDS011;69838;52.602;13.434;2023-08-20T00:44:52;21.15;;;18.95;;
80508;SDS011;69838;52.602;13.434;2023-08-20T00:45:40;21.17;;;18.30;;
80508;SDS011;69838;52.602;13.434;2023-08-20T00:46:26;22.48;;;20.17;;
80508;SDS011;69838;52.602;13.434;2023-08-20T00:47:12;21.13;;;19.02;;
80508;SDS011;69838;52.602;13.434;2023-08-20T00:47:58;22.30;;;19.92;;
80508;SDS011;69838;52.602;13.434;2023-08-20T00:48:44;21.77;;;19.50;;
80508;SDS011;69838;52.602;13.434;2023-08-20T00:49:30;22.45;;;20.15;;
80508;SDS011;69838;52.602;13.434;2023-08-20T00:50:16;21.75;;;19.42;;
80508;SDS011;69838;52.602;13.434;2023-08-20T00:51:03;20.85;;;18.75;;
80508;SDS011;69838;52.602;13.434;2023-08-20T00:51:49;21.25;;;19.05;;
80508;SDS011;69838;52.602;13.434;2023-08-20T00:52:35;20.73;;;18.63;;
80508;SDS011;69838;52.602;13.434;2023-08-20T00:53:21;21.60;;;19.33;;
80508;SDS011;69838;52.602;13.434;2023-08-20T00:54:07;22.25;;;19.13;;
80508;SDS011;69838;52.602;13.434;2023-08-20T00:54:53;22.27;;;19.92;;
80508;SDS011;69838;52.602;13.434;2023-08-20T00:55:40;21.60;;;19.08;;
80508;SDS011;69838;52.602;13.434;2023-08-20T00:56:27;22.20;;;19.77;;
80508;SDS011;69838;52.602;13.434;2023-08-20T00:57:13;22.02;;;19.60;;
80508;SDS011;69838;52.602;13.434;2023-08-20T00:57:59;22.48;;;20.10;;
80508;SDS011;69838;52.602;13.434;2023-08-20T00:58:47;21.48;;;19.35;;
80508;SDS011;69838;52.602;13.434;2023-08-20T00:59:33;21.65;;;19.30;;
80508;SDS011;69838;52.602;13.434;2023-08-20T01:00:18;21.60;;;19.25;;
80508;SDS011;69838;52.602;13.434;2023-08-20T01:01:06;21.92;;;19.63;;
80508;SDS011;69838;52.602;13.434;2023-08-20T01:01:52;21.95;;;19.30;;
80508;SDS011;69838;52.602;13.434;2023-08-20T01:02:38;20.83;;;18.63;;
80508;SDS011;69838;52.602;13.434;2023-08-20T01:03:25;23.58;;;21.17;;
80508;SDS011;69838;52.602;13.434;2023-08-20T01:04:11;21.20;;;18.92;;
80508;SDS011;69838;52.602;13.434;2023-08-20T01:04:56;21.60;;;19.27;;
80508;SDS011;69838;52.602;13.434;2023-08-20T01:05:45;21.02;;;18.83;;
80508;SDS011;69838;52.602;13.434;2023-08-20T01:06:36;20.38;;;18.27;;
80508;SDS011;69838;52.602;13.434;2023-08-20T01:07:30;20.77;;;18.67;;
80508;SDS011;69838;52.602;13.434;2023-08-20T01:08:26;20.35;;;18.15;;
80508;SDS011;69838;52.602;13.434;2023-08-20T01:09:20;20.17;;;18.08;;
80508;SDS011;69838;52.602;13.434;2023-08-20T01:10:22;20.30;;;17.88;;
80508;SDS011;69838;52.602;13.434;2023-08-20T01:11:16;20.33;;;18.23;;
80508;SDS011;69838;52.602;13.434;2023-08-20T01:12:06;21.55;;;19.23;;
80508;SDS011;69838;52.602;13.434;2023-08-20T01:12:54;22.40;;;20.10;;
80508;SDS011;69838;52.602;13.434;2023-08-20T01:13:39;20.38;;;18.13;;
80508;SDS011;69838;52.602;13.434;2023-08-20T01:14:27;19.88;;;17.77;;
80508;SDS011;69838;52.602;13.434;2023-08-20T01:15:12;21.15;;;18.95;;
80508;SDS011;69838;52.602;13.434;2023-08-20T01:15:59;22.73;;;20.33;;
80508;SDS011;69838;52.602;13.434;2023-08-20T01:16:45;20.55;;;18.45;;
80508;SDS011;69838;52.602;13.434;2023-08-20T01:17:31;21.92;;;19.63;;
80508;SDS011;69838;52.602;13.434;2023-08-20T01:18:16;21.25;;;19.05;;
80508;SDS011;69838;52.602;13.434;2023-08-20T01:19:03;21.30;;;19.08;;
80508;SDS011;69838;52.602;13.434;2023-08-20T01:19:48;21.77;;;19.58;;
80508;SDS011;69838;52.602;13.434;2023-08-20T01:20:35;22.05;;;19.83;;
80508;SDS011;69838;52.602;13.434;2023-08-20T01:21:30;21.73;;;19.42;;
80508;SDS011;69838;52.602;13.434;2023-08-20T01:22:34;20.90;;;18.48;;
80508;SDS011;69838;52.602;13.434;2023-08-20T01:23:41;20.00;;;17.90;;
80508;SDS011;69838;52.602;13.434;2023-08-20T01:24:44;20.00;;;17.55;;
80508;SDS011;69838;52.602;13.434;2023-08-20T01:25:45;20.05;;;17.50;;
80508;SDS011;69838;52.602;13.434;2023-08-20T01:26:48;19.02;;;17.02;;
80508;SDS011;69838;52.602;13.434;2023-08-20T01:27:43;19.10;;;17.20;;
80508;SDS011;69838;52.602;13.434;2023-08-20T01:28:38;20.35;;;18.25;;
80508;SDS011;69838;52.602;13.434;2023-08-20T01:29:26;20.88;;;18.65;;
80508;SDS011;69838;52.602;13.434;2023-08-20T01:30:12;20.83;;;18.67;;
80508;SDS011;69838;52.602;13.434;2023-08-20T01:30:58;20.90;;;17.77;;
80508;SDS011;69838;52.602;13.434;2023-08-20T01:31:45;19.50;;;17.50;;
80508;SDS011;69838;52.602;13.434;2023-08-20T01:32:32;20.15;;;17.52;;
80508;SDS011;69838;52.602;13.434;2023-08-20T01:33:18;20.55;;;18.38;;
80508;SDS011;69838;52.602;13.434;2023-08-20T01:34:05;20.20;;;18.10;;
80508;SDS011;69838;52.602;13.434;2023-08-20T01:34:51;20.17;;;17.38;;
80508;SDS011;69838;52.602;13.434;2023-08-20T01:35:38;20.20;;;17.98;;
80508;SDS011;69838;52.602;13.434;2023-08-20T01:36:23;18.83;;;16.58;;
80508;SDS011;69838;52.602;13.434;2023-08-20T01:37:09;19.23;;;17.17;;
80508;SDS011;69838;52.602;13.434;2023-08-20T01:37:55;18.75;;;16.75;;
80508;SDS011;69838;52.602;13.434;2023-08-20T01:38:41;18.52;;;16.55;;
80508;SDS011;69838;52.602;13.434;2023-08-20T01:39:26;19.75;;;16.98;;
80508;SDS011;69838;52.602;13.434;2023-08-20T01:40:12;18.75;;;16.75;;
80508;SDS011;69838;52.602;13.434;2023-08-20T01:40:58;18.27;;;16.40;;
80508;SDS011;69838;52.602;13.434;2023-08-20T01:41:43;18.77;;;16.55;;
80508;SDS011;69838;52.602;13.434;2023-08-20T01:42:30;18.90;;;16.75;;
80508;SDS011;69838;52.602;13.434;2023-08-20T01:43:15;19.48;;;17.35;;
80508;SDS011;69838;52.602;13.434;2023-08-20T01:44:02;19.58;;;17.67;;
80508;SDS011;69838;52.602;13.434;2023-08-20T01:44:48;19.00;;;16.77;;
80508;SDS011;69838;52.602;13.434;2023-08-20T01:45:34;20.80;;;18.13;;
80508;SDS011;69838;52.602;13.434;2023-08-20T01:46:19;18.98;;;16.88;;
80508;SDS011;69838;52.602;13.434;2023-08-20T01:47:06;18.08;;;16.25;;
80508;SDS011;69838;52.602;13.434;2023-08-20T01:47:51;18.50;;;16.27;;
80508;SDS011;69838;52.602;13.434;2023-08-20T01:48:37;21.25;;;17.58;;
80508;SDS011;69838;52.602;13.434;2023-08-20T01:49:23;19.27;;;16.73;;
80508;SDS011;69838;52.602;13.434;2023-08-20T01:50:09;18.52;;;16.55;;
80508;SDS011;69838;52.602;13.434;2023-08-20T01:50:56;18.30;;;16.25;;
80508;SDS011;69838;52.602;13.434;2023-08-20T01:51:41;18.48;;;16.20;;
80508;SDS011;69838;52.602;13.434;2023-08-20T01:52:26;21.17;;;16.90;;
80508;SDS011;69838;52.602;13.434;2023-08-20T01:53:14;17.45;;;15.52;;
80508;SDS011;69838;52.602;13.434;2023-08-20T01:53:59;19.85;;;17.83;;
80508;SDS011;69838;52.602;13.434;2023-08-20T01:54:45;18.92;;;16.65;;
80508;SDS011;69838;52.602;13.434;2023-08-20T01:55:31;18.52;;;16.52;;
80508;SDS011;69838;52.602;13.434;2023-08-20T01:56:16;18.30;;;16.50;;
80508;SDS011;69838;52.602;13.434;2023-08-20T01:57:02;18.50;;;16.60;;
80508;SDS011;69838;52.602;13.434;2023-08-20T01:57:48;19.02;;;16.25;;
80508;SDS011;69838;52.602;13.434;2023-08-20T01:58:34;20.23;;;18.08;;
80508;SDS011;69838;52.602;13.434;2023-08-20T01:59:22;18.92;;;16.92;;
80508;SDS011;69838;52.602;13.434;2023-08-20T02:00:09;18.27;;;16.38;;
80508;SDS011;69838;52.602;13.434;2023-08-20T02:00:55;19.38;;;17.40;;
80508;SDS011;69838;52.602;13.434;2023-08-20T02:01:41;18.65;;;16.65;;
80508;SDS011;69838;52.602;13.434;2023-08-20T02:02:27;18.17;;;16.08;;
80508;SDS011;69838;52.602;13.434;2023-08-20T02:03:12;18.25;;;15.95;;
80508;SDS011;69838;52.602;13.434;2023-08-20T02:03:59;19.50;;;17.42;;
80508;SDS011;69838;52.602;13.434;2023-08-20T02:04:44;18.33;;;16.30;;
80508;SDS011;69838;52.602;13.434;2023-08-20T02:05:29;20.65;;;16.05;;
80508;SDS011;69838;52.602;13.434;2023-08-20T02:06:16;18.58;;;16.67;;
80508;SDS011;69838;52.602;13.434;2023-08-20T02:07:01;18.48;;;16.48;;
80508;SDS011;69838;52.602;13.434;2023-08-20T02:07:47;19.98;;;17.52;;
80508;SDS011;69838;52.602;13.434;2023-08-20T02:08:33;20.42;;;16.83;;
80508;SDS011;69838;52.602;13.434;2023-08-20T02:09:19;19.70;;;17.60;;
80508;SDS011;69838;52.602;13.434;2023-08-20T02:10:05;20.75;;;17.25;;
80508;SDS011;69838;52.602;13.434;2023-08-20T02:10:59;18.48;;;16.42;;
80508;SDS011;69838;52.602;13.434;2023-08-20T02:11:45;19.10;;;16.77;;
80508;SDS011;69838;52.602;13.434;2023-08-20T02:12:31;18.38;;;15.77;;
80508;SDS011;69838;52.602;13.434;2023-08-20T02:13:17;19.10;;;17.10;;
80508;SDS011;69838;52.602;13.434;2023-08-20T02:14:02;18.55;;;16.33;;
80508;SDS011;69838;52.602;13.434;2023-08-20T02:14:50;19.92;;;17.13;;
80508;SDS011;69838;52.602;13.434;2023-08-20T02:15:35;20.08;;;16.85;;
80508;SDS011;69838;52.602;13.434;2023-08-20T02:16:21;19.17;;;16.38;;
80508;SDS011;69838;52.602;13.434;2023-08-20T02:17:07;18.92;;;16.98;;
80508;SDS011;69838;52.602;13.434;2023-08-20T02:17:53;19.23;;;16.92;;
80508;SDS011;69838;52.602;13.434;2023-08-20T02:18:38;21.63;;;17.77;;
80508;SDS011;69838;52.602;13.434;2023-08-20T02:19:24;19.52;;;17.00;;
80508;SDS011;69838;52.602;13.434;2023-08-20T02:20:10;19.52;;;17.38;;
80508;SDS011;69838;52.602;13.434;2023-08-20T02:20:56;19.73;;;17.63;;
80508;SDS011;69838;52.602;13.434;2023-08-20T02:21:42;18.48;;;16.48;;
80508;SDS011;69838;52.602;13.434;2023-08-20T02:22:28;20.02;;;17.73;;
80508;SDS011;69838;52.602;13.434;2023-08-20T02:23:14;19.70;;;17.50;;
80508;SDS011;69838;52.602;13.434;2023-08-20T02:24:00;19.95;;;17.95;;
80508;SDS011;69838;52.602;13.434;2023-08-20T02:24:46;18.65;;;16.63;;
80508;SDS011;69838;52.602;13.434;2023-08-20T02:25:31;19.25;;;17.25;;
80508;SDS011;69838;52.602;13.434;2023-08-20T02:26:18;18.08;;;16.15;;
80508;SDS011;69838;52.602;13.434;2023-08-20T02:27:03;18.70;;;16.77;;
80508;SDS011;69838;52.602;13.434;2023-08-20T02:27:48;20.85;;;17.92;;
80508;SDS011;69838;52.602;13.434;2023-08-20T02:28:35;20.10;;;18.05;;
80508;SDS011;69838;52.602;13.434;2023-08-20T02:29:20;19.77;;;17.27;;
80508;SDS011;69838;52.602;13.434;2023-08-20T02:30:08;19.98;;;17.90;;
80508;SDS011;69838;52.602;13.434;2023-08-20T02:30:55;20.10;;;18.00;;
80508;SDS011;69838;52.602;13.434;2023-08-20T02:31:42;19.58;;;17.30;;
80508;SDS011;69838;52.602;13.434;2023-08-20T02:32:28;19.20;;;17.15;;
80508;SDS011;69838;52.602;13.434;2023-08-20T02:33:15;20.58;;;18.02;;
80508;SDS011;69838;52.602;13.434;2023-08-20T02:34:00;20.27;;;17.98;;
80508;SDS011;69838;52.602;13.434;2023-08-20T02:34:48;19.77;;;17.75;;
80508;SDS011;69838;52.602;13.434;2023-08-20T02:35:34;20.67;;;18.25;;
80508;SDS011;69838;52.602;13.434;2023-08-20T02:36:19;20.30;;;18.10;;
80508;SDS011;69838;52.602;13.434;2023-08-20T02:37:06;19.55;;;17.45;;
80508;SDS011;69838;52.602;13.434;2023-08-20T02:37:52;20.88;;;17.90;;
80508;SDS011;69838;52.602;13.434;2023-08-20T02:38:37;20.92;;;18.35;;
80508;SDS011;69838;52.602;13.434;2023-08-20T02:39:24;19.55;;;17.23;;
80508;SDS011;69838;52.602;13.434;2023-08-20T02:40:10;19.90;;;17.80;;
80508;SDS011;69838;52.602;13.434;2023-08-20T02:40:56;20.73;;;18.48;;
80508;SDS011;69838;52.602;13.434;2023-08-20T02:41:42;21.63;;;19.38;;
80508;SDS011;69838;52.602;13.434;2023-08-20T02:42:28;20.55;;;18.35;;
80508;SDS011;69838;52.602;13.434;2023-08-20T02:43:14;19.42;;;16.45;;
80508;SDS011;69838;52.602;13.434;2023-08-20T02:43:59;19.60;;;17.50;;
80508;SDS011;69838;52.602;13.434;2023-08-20T02:44:45;21.00;;;18.67;;
80508;SDS011;69838;52.602;13.434;2023-08-20T02:45:38;21.55;;;19.25;;
80508;SDS011;69838;52.602;13.434;2023-08-20T02:46:25;21.27;;;18.75;;
80508;SDS011;69838;52.602;13.434;2023-08-20T02:47:11;21.00;;;18.77;;
80508;SDS011;69838;52.602;13.434;2023-08-20T02:47:56;20.23;;;18.08;;
80508;SDS011;69838;52.602;13.434;2023-08-20T02:48:42;19.33;;;17.02;;
80508;SDS011;69838;52.602;13.434;2023-08-20T02:49:28;21.40;;;17.92;;
80508;SDS011;69838;52.602;13.434;2023-08-20T02:50:13;20.10;;;17.42;;
80508;SDS011;69838;52.602;13.434;2023-08-20T02:50:59;19.48;;;17.38;;
80508;SDS011;69838;52.602;13.434;2023-08-20T02:51:45;19.65;;;17.55;;
80508;SDS011;69838;52.602;13.434;2023-08-20T02:52:30;20.13;;;17.83;;
80508;SDS011;69838;52.602;13.434;2023-08-20T02:53:16;18.42;;;16.42;;
80508;SDS011;69838;52.602;13.434;2023-08-20T02:54:02;19.67;;;17.65;;
80508;SDS011;69838;52.602;13.434;2023-08-20T02:54:48;20.23;;;17.40;;
80508;SDS011;69838;52.602;13.434;2023-08-20T02:55:35;19.70;;;17.38;;
80508;SDS011;69838;52.602;13.434;2023-08-20T02:56:20;20.00;;;17.73;;
80508;SDS011;69838;52.602;13.434;2023-08-20T02:57:05;20.15;;;17.55;;
80508;SDS011;69838;52.602;13.434;2023-08-20T02:57:52;19.65;;;17.65;;
80508;SDS011;69838;52.602;13.434;2023-08-20T02:58:37;19.20;;;16.90;;
80508;SDS011;69838;52.602;13.434;2023-08-20T02:59:23;18.88;;;16.88;;
80508;SDS011;69838;52.602;13.434;2023-08-20T03:00:09;20.00;;;17.88;;
80508;SDS011;69838;52.602;13.434;2023-08-20T03:00:59;20.92;;;18.63;;
80508;SDS011;69838;52.602;13.434;2023-08-20T03:01:45;20.23;;;18.08;;
80508;SDS011;69838;52.602;13.434;2023-08-20T03:02:31;22.40;;;18.13;;
80508;SDS011;69838;52.602;13.434;2023-08-20T03:03:17;20.15;;;17.77;;
80508;SDS011;69838;52.602;13.434;2023-08-20T03:04:02;20.88;;;18.02;;
80508;SDS011;69838;52.602;13.434;2023-08-20T03:04:49;19.33;;;17.25;;
80508;SDS011;69838;52.602;13.434;2023-08-20T03:05:34;20.70;;;18.13;;
80508;SDS011;69838;52.602;13.434;2023-08-20T03:06:20;19.48;;;17.48;;
80508;SDS011;69838;52.602;13.434;2023-08-20T03:07:06;20.83;;;17.98;;
80508;SDS011;69838;52.602;13.434;2023-08-20T03:07:51;19.73;;;17.20;;
80508;SDS011;69838;52.602;13.434;2023-08-20T03:08:37;22.08;;;18.98;;
80508;SDS011;69838;52.602;13.434;2023-08-20T03:09:23;21.13;;;18.92;;
80508;SDS011;69838;52.602;13.434;2023-08-20T03:10:08;21.00;;;18.67;;
80508;SDS011;69838;52.602;13.434;2023-08-20T03:10:55;21.50;;;18.73;;
80508;SDS011;69838;52.602;13.434;2023-08-20T03:11:40;20.67;;;17.70;;
80508;SDS011;69838;52.602;13.434;2023-08-20T03:12:26;20.50;;;18.38;;
80508;SDS011;69838;52.602;13.434;2023-08-20T03:13:12;19.83;;;17.70;;
80508;SDS011;69838;52.602;13.434;2023-08-20T03:13:57;18.17;;;16.25;;
80508;SDS011;69838;52.602;13.434;2023-08-20T03:14:43;22.08;;;18.42;;
80508;SDS011;69838;52.602;13.434;2023-08-20T03:15:29;21.10;;;17.55;;
80508;SDS011;69838;52.602;13.434;2023-08-20T03:16:16;20.85;;;18.35;;
80508;SDS011;69838;52.602;13.434;2023-08-20T03:17:03;19.33;;;17.23;;
80508;SDS011;69838;52.602;13.434;2023-08-20T03:17:48;21.83;;;19.50;;
80508;SDS011;69838;52.602;13.434;2023-08-20T03:18:34;20.33;;;17.33;;
80508;SDS011;69838;52.602;13.434;2023-08-20T03:19:20;19.55;;;17.45;;
80508;SDS011;69838;52.602;13.434;2023-08-20T03:20:06;20.38;;;18.17;;
80508;SDS011;69838;52.602;13.434;2023-08-20T03:20:53;22.00;;;18.00;;
80508;SDS011;69838;52.602;13.434;2023-08-20T03:21:40;19.58;;;17.42;;
80508;SDS011;69838;52.602;13.434;2023-08-20T03:22:26;18.90;;;16.40;;
80508;SDS011;69838;52.602;13.434;2023-08-20T03:23:12;20.00;;;17.77;;
80508;SDS011;69838;52.602;13.434;2023-08-20T03:23:58;20.20;;;17.83;;
80508;SDS011;69838;52.602;13.434;2023-08-20T03:24:43;22.50;;;18.70;;
80508;SDS011;69838;52.602;13.434;2023-08-20T03:25:29;19.58;;;17.48;;
80508;SDS011;69838;52.602;13.434;2023-08-20T03:26:15;18.92;;;16.77;;
80508;SDS011;69838;52.602;13.434;2023-08-20T03:27:00;21.85;;;17.42;;
80508;SDS011;69838;52.602;13.434;2023-08-20T03:27:46;21.88;;;19.67;;
80508;SDS011;69838;52.602;13.434;2023-08-20T03:28:32;21.45;;;19.13;;
80508;SDS011;69838;52.602;13.434;2023-08-20T03:29:17;20.25;;;18.02;;
80508;SDS011;69838;52.602;13.434;2023-08-20T03:30:03;19.65;;;16.80;;
80508;SDS011;69838;52.602;13.434;2023-08-20T03:30:50;23.25;;;18.02;;
80508;SDS011;69838;52.602;13.434;2023-08-20T03:31:37;21.77;;;18.15;;
80508;SDS011;69838;52.602;13.434;2023-08-20T03:32:23;22.50;;;16.48;;
80508;SDS011;69838;52.602;13.434;2023-08-20T03:33:09;22.35;;;18.75;;
80508;SDS011;69838;52.602;13.434;2023-08-20T03:33:54;20.58;;;17.08;;
80508;SDS011;69838;52.602;13.434;2023-08-20T03:34:41;21.45;;;17.23;;
80508;SDS011;69838;52.602;13.434;2023-08-20T03:35:26;21.10;;;18.85;;
80508;SDS011;69838;52.602;13.434;2023-08-20T03:36:11;20.73;;;18.00;;
80508;SDS011;69838;52.602;13.434;2023-08-20T03:36:58;19.65;;;16.20;;
80508;SDS011;69838;52.602;13.434;2023-08-20T03:37:43;22.05;;;18.55;;
80508;SDS011;69838;52.602;13.434;2023-08-20T03:38:28;20.23;;;17.30;;
80508;SDS011;69838;52.602;13.434;2023-08-20T03:39:15;22.10;;;19.67;;
80508;SDS011;69838;52.602;13.434;2023-08-20T03:40:00;20.30;;;18.17;;
80508;SDS011;69838;52.602;13.434;2023-08-20T03:40:49;21.55;;;18.58;;
80508;SDS011;69838;52.602;13.434;2023-08-20T03:41:36;21.50;;;17.17;;
80508;SDS011;69838;52.602;13.434;2023-08-20T03:42:21;20.20;;;18.02;;
80508;SDS011;69838;52.602;13.434;2023-08-20T03:43:06;22.05;;;18.50;;
80508;SDS011;69838;52.602;13.434;2023-08-20T03:43:53;21.92;;;17.83;;
80508;SDS011;69838;52.602;13.434;2023-08-20T03:44:38;23.02;;;18.95;;
80508;SDS011;69838;52.602;13.434;2023-08-20T03:45:24;22.52;;;19.58;;
80508;SDS011;69838;52.602;13.434;2023-08-20T03:46:10;21.95;;;18.25;;
80508;SDS011;69838;52.602;13.434;2023-08-20T03:46:57;22.13;;;19.00;;
80508;SDS011;69838;52.602;13.434;2023-08-20T03:47:42;23.50;;;19.23;;
80508;SDS011;69838;52.602;13.434;2023-08-20T03:48:31;21.90;;;18.55;;
80508;SDS011;69838;52.602;13.434;2023-08-20T03:49:17;19.80;;;17.02;;
80508;SDS011;69838;52.602;13.434;2023-08-20T03:50:02;20.83;;;18.58;;
80508;SDS011;69838;52.602;13.434;2023-08-20T03:50:49;20.35;;;17.58;;
80508;SDS011;69838;52.602;13.434;2023-08-20T03:51:34;20.63;;;17.70;;
80508;SDS011;69838;52.602;13.434;2023-08-20T03:52:21;20.58;;;18.10;;
80508;SDS011;69838;52.602;13.434;2023-08-20T03:53:06;22.33;;;18.17;;
80508;SDS011;69838;52.602;13.434;2023-08-20T03:53:52;19.77;;;17.38;;
80508;SDS011;69838;52.602;13.434;2023-08-20T03:54:38;20.70;;;17.92;;
80508;SDS011;69838;52.602;13.434;2023-08-20T03:55:23;22.90;;;17.98;;
80508;SDS011;69838;52.602;13.434;2023-08-20T03:56:09;19.33;;;17.13;;
80508;SDS011;69838;52.602;13.434;2023-08-20T03:56:55;21.20;;;18.02;;
80508;SDS011;69838;52.602;13.434;2023-08-20T03:57:40;21.52;;;18.20;;
80508;SDS011;69838;52.602;13.434;2023-08-20T03:58:27;21.05;;;18.67;;
80508;SDS011;69838;52.602;13.434;2023-08-20T03:59:12;21.05;;;17.67;;
80508;SDS011;69838;52.602;13.434;2023-08-20T03:59:58;21.75;;;17.67;;
80508;SDS011;69838;52.602;13.434;2023-08-20T04:00:44;23.05;;;19.13;;
80508;SDS011;69838;52.602;13.434;2023-08-20T04:01:30;21.85;;;19.52;;
80508;SDS011;69838;52.602;13.434;2023-08-20T04:02:17;21.80;;;18.48;;
80508;SDS011;69838;52.602;13.434;2023-08-20T04:03:03;21.88;;;18.50;;
80508;SDS011;69838;52.602;13.434;2023-08-20T04:03:49;20.60;;;18.35;;
80508;SDS011;69838;52.602;13.434;2023-08-20T04:04:34;20.27;;;17.77;;
80508;SDS011;69838;52.602;13.434;2023-08-20T04:05:22;21.95;;;18.00;;
80508;SDS011;69838;52.602;13.434;2023-08-20T04:06:07;22.02;;;17.83;;
80508;SDS011;69838;52.602;13.434;2023-08-20T04:06:52;20.42;;;17.75;;
80508;SDS011;69838;52.602;13.434;2023-08-20T04:07:39;21.15;;;18.58;;
80508;SDS011;69838;52.602;13.434;2023-08-20T04:08:24;21.23;;;18.40;;
80508;SDS011;69838;52.602;13.434;2023-08-20T04:09:09;20.65;;;17.65;;
80508;SDS011;69838;52.602;13.434;2023-08-20T04:09:56;21.10;;;17.60;;
80508;SDS011;69838;52.602;13.434;2023-08-20T04:10:44;19.90;;;17.75;;
80508;SDS011;69838;52.602;13.434;2023-08-20T04:11:31;23.00;;;18.20;;
80508;SDS011;69838;52.602;13.434;2023-08-20T04:12:16;22.02;;;18.23;;
80508;SDS011;69838;52.602;13.434;2023-08-20T04:13:01;22.13;;;18.33;;
80508;SDS011;69838;52.602;13.434;2023-08-20T04:13:48;22.00;;;18.23;;
80508;SDS011;69838;52.602;13.434;2023-08-20T04:14:33;22.25;;;17.92;;
80508;SDS011;69838;52.602;13.434;2023-08-20T04:15:19;21.27;;;18.45;;
80508;SDS011;69838;52.602;13.434;2023-08-20T04:16:05;23.40;;;19.70;;
80508;SDS011;69838;52.602;13.434;2023-08-20T04:16:51;19.42;;;17.20;;
80508;SDS011;69838;52.602;13.434;2023-08-20T04:17:37;21.17;;;18.92;;
80508;SDS011;69838;52.602;13.434;2023-08-20T04:18:24;23.30;;;18.35;;
80508;SDS011;69838;52.602;13.434;2023-08-20T04:19:09;21.27;;;18.80;;
80508;SDS011;69838;52.602;13.434;2023-08-20T04:19:54;21.98;;;19.33;;
80508;SDS011;69838;52.602;13.434;2023-08-20T04:20:41;20.25;;;18.02;;
80508;SDS011;69838;52.602;13.434;2023-08-20T04:21:26;23.10;;;18.60;;
80508;SDS011;69838;52.602;13.434;2023-08-20T04:22:12;23.23;;;20.08;;
80508;SDS011;69838;52.602;13.434;2023-08-20T04:22:58;20.45;;;17.92;;
80508;SDS011;69838;52.602;13.434;2023-08-20T04:23:43;21.23;;;18.80;;
80508;SDS011;69838;52.602;13.434;2023-08-20T04:24:29;21.05;;;17.42;;
80508;SDS011;69838;52.602;13.434;2023-08-20T04:25:15;21.00;;;17.85;;
80508;SDS011;69838;52.602;13.434;2023-08-20T04:26:01;21.70;;;18.38;;
80508;SDS011;69838;52.602;13.434;2023-08-20T04:26:46;23.55;;;19.88;;
80508;SDS011;69838;52.602;13.434;2023-08-20T04:27:32;20.90;;;18.10;;
80508;SDS011;69838;52.602;13.434;2023-08-20T04:28:18;21.40;;;19.08;;
80508;SDS011;69838;52.602;13.434;2023-08-20T04:29:04;22.77;;;18.02;;